Time;durP1;ratioP1;P1;durP2;ratioP2;P2;SDS_P1;SDS_P2;PMS_P1;PMS_P2;Temp;Humidity;BMP_temperature;BMP_pressure;BME280_temperature;BME280_humidity;BME280_pressure;Samples;Min_cycle;Max_cycle;Signal;HPM_P1;HPM_P2
2022/01/08 00:01:01;;;;;;;0.60;0.60;;;;;;;6.75;100.00;100062.03;5035502;28;20037;-84
2022/01/08 00:03:27;;;;;;;1.95;1.40;;;;;;;6.75;100.00;100049.50;5024506;28;20041;-82
2022/01/08 00:05:56;;;;;;;1.42;0.60;;;;;;;6.85;100.00;100037.78;5038937;28;20037;-82
2022/01/08 00:08:23;;;;;;;4.63;1.20;;;;;;;6.87;100.00;100033.09;5040704;28;20068;-84
2022/01/08 00:10:49;;;;;;;1.50;0.80;;;;;;;6.91;100.00;100021.91;5039192;28;20072;-85
2022/01/08 00:13:15;;;;;;;2.20;1.02;;;;;;;6.93;100.00;100022.59;5036609;28;20559;-84
2022/01/08 00:15:41;;;;;;;0.60;0.60;;;;;;;6.98;100.00;100020.22;5035954;28;20032;-83
2022/01/08 00:18:06;;;;;;;2.08;1.30;;;;;;;7.00;100.00;100009.34;5007324;28;20028;-83
2022/01/08 00:20:32;;;;;;;2.63;1.02;;;;;;;7.05;100.00;99997.16;5037968;28;20036;-82
2022/01/08 00:22:58;;;;;;;0.55;0.55;;;;;;;7.09;100.00;99988.78;5020765;28;20033;-80
2022/01/08 00:25:24;;;;;;;0.52;0.52;;;;;;;7.16;100.00;99984.41;5042654;28;20029;-83
2022/01/08 00:27:49;;;;;;;0.88;0.70;;;;;;;7.22;100.00;99975.69;5046838;28;20475;-86
2022/01/08 00:30:15;;;;;;;0.60;0.60;;;;;;;7.32;100.00;99995.03;5037464;28;20040;-84
2022/01/08 00:32:41;;;;;;;0.50;0.50;;;;;;;7.35;100.00;99980.50;5038174;28;20053;-84
2022/01/08 00:35:08;;;;;;;4.10;1.00;;;;;;;7.35;100.00;99967.13;5047777;28;20040;-84
2022/01/08 00:37:37;;;;;;;1.33;0.63;;;;;;;7.32;100.00;99960.28;5049969;28;20048;-85
2022/01/08 00:40:04;;;;;;;3.35;1.00;;;;;;;7.32;100.00;99954.94;5030531;28;20479;-83
2022/01/08 00:42:30;;;;;;;0.50;0.50;;;;;;;7.35;100.00;99948.41;5046147;28;20470;-85
2022/01/08 00:44:56;;;;;;;0.40;0.40;;;;;;;7.32;100.00;99930.88;5015323;28;20052;-85
2022/01/08 00:47:21;;;;;;;11.00;1.65;;;;;;;7.34;100.00;99922.69;5018613;28;20962;-84
2022/01/08 00:49:47;;;;;;;0.45;0.45;;;;;;;7.40;100.00;99921.97;5020371;28;20115;-82
2022/01/08 00:52:13;;;;;;;0.65;0.65;;;;;;;7.42;100.00;99909.25;5020761;28;20036;-83
2022/01/08 00:54:38;;;;;;;0.93;0.90;;;;;;;7.42;100.00;99901.22;5003675;28;20040;-83
2022/01/08 00:57:04;;;;;;;0.60;0.60;;;;;;;7.46;100.00;99891.84;5039052;28;20040;-83
2022/01/08 00:59:30;;;;;;;2.70;0.93;;;;;;;7.44;100.00;99893.88;5032301;28;20032;-87
2022/01/08 01:01:56;;;;;;;2.50;1.35;;;;;;;7.49;100.00;99892.31;5038753;28;20025;-83
2022/01/08 01:04:21;;;;;;;0.40;0.40;;;;;;;7.49;100.00;99888.81;5008387;28;20033;-82
2022/01/08 01:06:47;;;;;;;0.93;0.50;;;;;;;7.54;100.00;99881.09;5017964;28;20043;-82
2022/01/08 01:09:13;;;;;;;0.50;0.50;;;;;;;7.56;100.00;99883.59;5038884;28;20511;-85
2022/01/08 01:11:38;;;;;;;0.45;0.45;;;;;;;7.55;100.00;99880.09;5007413;28;20033;-83
2022/01/08 01:14:04;;;;;;;0.60;0.60;;;;;;;7.58;100.00;99881.56;5025340;28;20029;-82
2022/01/08 01:16:30;;;;;;;0.55;0.55;;;;;;;7.56;100.00;99857.66;5041856;28;20037;-82
2022/01/08 01:18:58;;;;;;;0.50;0.50;;;;;;;7.55;100.00;99857.84;5009018;28;20045;-83
2022/01/08 01:21:24;;;;;;;3.30;0.75;;;;;;;7.59;100.00;99854.63;5040311;28;20116;-84
2022/01/08 01:23:52;;;;;;;0.50;0.50;;;;;;;7.59;100.00;99845.78;5039938;28;20130;-84
2022/01/08 01:26:23;;;;;;;0.50;0.50;;;;;;;7.61;100.00;99851.78;5038439;28;20487;-86
2022/01/08 01:28:58;;;;;;;1.05;0.70;;;;;;;7.59;100.00;99837.75;5006745;28;20064;-83
2022/01/08 01:47:17;;;;;;;12.57;1.42;;;;;;;7.64;100.00;99728.34;5022266;28;20060;-82
2022/01/08 01:49:45;;;;;;;3.70;0.85;;;;;;;7.72;100.00;99744.31;5036681;28;20092;-84
2022/01/08 01:52:13;;;;;;;0.60;0.60;;;;;;;7.68;100.00;99732.34;5032744;28;20619;-83
2022/01/08 01:54:40;;;;;;;0.50;0.50;;;;;;;7.75;100.00;99740.44;5037860;28;20386;-85
2022/01/08 01:57:08;;;;;;;2.20;0.88;;;;;;;7.74;100.00;99739.63;5036871;28;20773;-83
2022/01/08 01:59:35;;;;;;;0.50;0.50;;;;;;;7.77;100.00;99731.22;5019522;28;20047;-80
2022/01/08 02:02:01;;;;;;;1.92;0.70;;;;;;;7.79;100.00;99723.84;5040147;28;20039;-83
2022/01/08 02:04:27;;;;;;;0.40;0.40;;;;;;;7.81;100.00;99716.47;5039201;28;20033;-84
2022/01/08 02:06:56;;;;;;;2.45;0.90;;;;;;;7.81;100.00;99697.75;5020780;28;20044;-82
2022/01/08 02:09:21;;;;;;;1.90;0.60;;;;;;;7.78;100.00;99687.41;5039631;28;20029;-83
2022/01/08 02:11:58;;;;;;;2.30;1.13;;;;;;;7.82;100.00;99683.34;5018927;28;20036;-84
2022/01/08 02:14:25;;;;;;;0.80;0.80;;;;;;;7.78;100.00;99662.47;5001191;28;20032;-81
2022/01/08 02:16:50;;;;;;;0.40;0.40;;;;;;;7.82;100.00;99659.25;5038347;28;20086;-82
2022/01/08 02:19:16;;;;;;;4.68;0.80;;;;;;;7.77;100.00;99632.22;5038648;28;20045;-82
2022/01/08 02:22:02;;;;;;;1.10;0.50;;;;;;;7.87;100.00;99635.44;5024836;28;20486;-83
2022/01/08 02:24:28;;;;;;;1.52;0.60;;;;;;;7.90;100.00;99620.88;5040695;28;20094;-85
2022/01/08 02:26:54;;;;;;;0.43;0.43;;;;;;;7.96;100.00;99630.00;5014474;28;20032;-85
2022/01/08 02:29:22;;;;;;;1.27;0.65;;;;;;;7.94;100.00;99616.81;5028667;28;20167;-87
2022/01/08 02:32:01;;;;;;;1.20;0.75;;;;;;;7.93;100.00;99605.25;5021064;28;20095;-84
2022/01/08 02:34:27;;;;;;;0.50;0.50;;;;;;;7.97;100.00;99602.22;5036023;28;21522;-80
2022/01/08 02:36:55;;;;;;;0.60;0.57;;;;;;;7.98;100.00;99599.34;5020767;28;20575;-84
2022/01/08 02:39:20;;;;;;;2.25;0.60;;;;;;;8.03;100.00;99593.44;5038599;28;20037;-85
2022/01/08 02:41:46;;;;;;;1.95;0.77;;;;;;;8.07;100.00;99574.13;5034497;28;20464;-84
2022/01/08 02:44:12;;;;;;;2.20;0.80;;;;;;;8.12;100.00;99571.72;5036131;28;20032;-85
2022/01/08 02:46:39;;;;;;;0.55;0.55;;;;;;;8.14;100.00;99576.88;5036661;28;20036;-86
2022/01/08 02:49:06;;;;;;;1.98;0.55;;;;;;;8.18;100.00;99562.09;5020656;28;20037;-86
2022/01/08 02:51:34;;;;;;;1.88;0.70;;;;;;;8.22;100.00;99549.97;5019174;28;20039;-86
2022/01/08 02:54:00;;;;;;;1.65;0.50;;;;;;;8.21;100.00;99531.44;5018774;28;20032;-86
2022/01/08 02:56:25;;;;;;;5.43;0.77;;;;;;;8.27;100.00;99530.66;5035135;28;20029;-86
2022/01/08 02:58:51;;;;;;;1.08;0.60;;;;;;;8.26;100.00;99535.19;5046926;28;20411;-83
2022/01/08 03:01:17;;;;;;;0.50;0.50;;;;;;;8.30;100.00;99528.44;5034812;28;20120;-84
2022/01/08 03:03:42;;;;;;;4.88;1.13;;;;;;;8.32;100.00;99534.44;5038178;28;20615;-83
2022/01/08 03:06:08;;;;;;;1.20;0.80;;;;;;;8.35;100.00;99498.41;5036940;28;20124;-85
2022/01/08 03:08:33;;;;;;;0.60;0.40;;;;;;;8.28;100.00;99486.78;5000479;28;20048;-85
2022/01/08 03:10:59;;;;;;;2.88;0.90;;;;;;;8.40;100.00;99503.22;5032767;28;20032;-84
2022/01/08 03:13:25;;;;;;;1.55;0.73;;;;;;;8.38;100.00;99495.34;5034758;28;20036;-86
2022/01/08 03:15:50;;;;;;;0.40;0.40;;;;;;;8.42;100.00;99499.31;5020521;28;20489;-86
2022/01/08 03:18:16;;;;;;;1.77;0.60;;;;;;;8.45;100.00;99482.03;5037239;28;20043;-85
2022/01/08 03:21:22;;;;;;;0.85;0.80;;;;;;;8.47;100.00;99466.63;5039589;28;20390;-88
2022/01/08 03:23:59;;;;;;;2.03;0.70;;;;;;;8.45;100.00;99452.56;5040879;28;20041;-82
2022/01/08 03:26:27;;;;;;;1.33;0.95;;;;;;;8.43;100.00;99451.94;5054213;28;20075;-86
2022/01/08 03:28:53;;;;;;;0.50;0.50;;;;;;;8.50;100.00;99459.00;5038927;28;20316;-83
2022/01/08 03:31:20;;;;;;;1.75;0.65;;;;;;;8.42;100.00;99436.91;5044246;28;20045;-82
2022/01/08 03:33:46;;;;;;;0.50;0.50;;;;;;;8.50;100.00;99432.22;5047018;28;20615;-85
2022/01/08 03:36:14;;;;;;;0.60;0.55;;;;;;;8.50;100.00;99423.34;5030153;28;20072;-83
2022/01/08 03:38:39;;;;;;;0.50;0.50;;;;;;;8.53;100.00;99414.94;5048610;28;21165;-84
2022/01/08 03:41:05;;;;;;;0.50;0.50;;;;;;;8.53;100.00;99413.06;5028264;28;20036;-85
2022/01/08 03:43:31;;;;;;;0.40;0.40;;;;;;;8.55;100.00;99426.28;5024884;28;21590;-86
2022/01/08 03:45:57;;;;;;;1.13;0.85;;;;;;;8.56;100.00;99417.22;5037850;28;20033;-83
2022/01/08 03:49:13;;;;;;;0.50;0.50;;;;;;;8.53;100.00;99391.63;5036817;28;20493;-82
2022/01/08 03:51:12;;;;;;;0.70;0.60;;;;;;;8.53;100.00;99390.81;5029085;28;20076;-83
2022/01/08 03:53:38;;;;;;;0.60;0.60;;;;;;;8.53;100.00;99378.25;5040684;28;20033;-85
2022/01/08 03:56:04;;;;;;;0.50;0.50;;;;;;;8.59;100.00;99379.31;5046108;28;20429;-83
2022/01/08 03:58:30;;;;;;;0.50;0.50;;;;;;;8.60;100.00;99375.63;5020436;28;20029;-83
2022/01/08 04:00:56;;;;;;;0.50;0.50;;;;;;;8.65;100.00;99357.06;5039792;28;20041;-82
2022/01/08 04:03:21;;;;;;;1.15;0.60;;;;;;;8.65;100.00;99365.09;5023783;28;20037;-85
2022/01/08 04:05:48;;;;;;;0.98;0.50;;;;;;;8.60;100.00;99338.09;5032846;28;20037;-85
2022/01/08 04:08:15;;;;;;;1.00;0.60;;;;;;;8.73;100.00;99354.25;5037122;28;20491;-84
2022/01/08 04:10:41;;;;;;;0.38;0.38;;;;;;;8.78;100.00;99354.47;5029197;28;20920;-83
2022/01/08 04:13:12;;;;;;;0.47;0.47;;;;;;;8.77;100.00;99338.59;5043900;28;20039;-84
2022/01/08 04:15:40;;;;;;;1.15;0.65;;;;;;;8.84;100.00;99344.81;5042834;28;20448;-83
2022/01/08 04:18:07;;;;;;;0.68;0.52;;;;;;;8.88;100.00;99340.69;5043985;28;20041;-83
2022/01/08 04:20:38;;;;;;;0.82;0.82;;;;;;;8.92;100.00;99330.44;5048138;28;20209;-82
2022/01/08 04:23:04;;;;;;;6.43;0.82;;;;;;;8.98;100.00;99335.81;5025050;28;20029;-86
2022/01/08 04:25:30;;;;;;;3.35;0.93;;;;;;;9.02;100.00;99325.50;5030083;28;20471;-83
2022/01/08 04:27:56;;;;;;;2.08;0.95;;;;;;;9.10;100.00;99327.16;5031471;28;20064;-80
2022/01/08 04:30:21;;;;;;;5.18;0.98;;;;;;;9.19;100.00;99305.34;5024911;28;20037;-83
2022/01/08 04:32:47;;;;;;;4.53;0.90;;;;;;;9.20;100.00;99315.03;5054469;28;20033;-84
2022/01/08 04:35:15;;;;;;;1.65;0.70;;;;;;;9.27;100.00;99293.59;5039166;28;20048;-83
2022/01/08 04:37:41;;;;;;;5.88;1.42;;;;;;;9.30;100.00;99295.88;5020508;28;20510;-85
2022/01/08 04:40:07;;;;;;;1.15;0.80;;;;;;;9.31;100.00;99291.34;5035063;28;20045;-86
2022/01/08 04:42:33;;;;;;;0.52;0.40;;;;;;;9.36;100.00;99286.19;5038617;28;20037;-83
2022/01/08 04:44:59;;;;;;;2.17;0.80;;;;;;;9.40;100.00;99290.13;5039516;28;20033;-83
2022/01/08 04:47:25;;;;;;;10.70;1.85;;;;;;;9.40;100.00;99263.31;5019935;28;20087;-86
2022/01/08 04:49:53;;;;;;;7.97;1.67;;;;;;;9.45;100.00;99223.28;5040159;28;20148;-85
2022/01/08 04:52:19;;;;;;;4.68;1.40;;;;;;;9.45;100.00;99234.81;5036864;28;20546;-85
2022/01/08 04:54:45;;;;;;;1.58;0.75;;;;;;;9.45;100.00;99234.00;5035877;28;20032;-84
2022/01/08 04:57:13;;;;;;;0.50;0.50;;;;;;;9.47;100.00;99242.66;5005640;28;20048;-86
2022/01/08 04:59:38;;;;;;;11.57;1.70;;;;;;;9.44;100.00;99229.66;5022593;28;20195;-82
2022/01/08 05:02:06;;;;;;;1.17;0.50;;;;;;;9.42;100.00;99227.19;5038019;28;20033;-83
2022/01/08 05:04:31;;;;;;;4.28;1.02;;;;;;;9.43;100.00;99218.09;5033093;28;20091;-85
2022/01/08 05:06:57;;;;;;;0.57;0.57;;;;;;;9.48;100.00;99222.84;5035358;28;20479;-81
2022/01/08 05:09:22;;;;;;;3.25;1.00;;;;;;;9.46;100.00;99190.03;5007279;28;20533;-85
2022/01/08 05:11:48;;;;;;;6.75;1.05;;;;;;;9.48;100.00;99189.84;5037184;28;20041;-83
2022/01/08 05:14:14;;;;;;;5.07;1.52;;;;;;;9.50;100.00;99193.13;5035142;28;20112;-85
2022/01/08 05:16:41;;;;;;;5.22;0.93;;;;;;;9.48;100.00;99177.25;5021656;28;20112;-83
2022/01/08 05:19:07;;;;;;;0.90;0.75;;;;;;;9.51;100.00;99181.38;5021455;28;20501;-84
2022/01/08 05:21:37;;;;;;;2.45;0.80;;;;;;;9.52;100.00;99148.13;5018734;28;20104;-86
2022/01/08 05:24:02;;;;;;;0.57;0.57;;;;;;;9.51;100.00;99152.69;5039215;28;20071;-85
2022/01/08 05:26:28;;;;;;;0.73;0.70;;;;;;;9.56;100.00;99160.09;5040545;28;20545;-85
2022/01/08 05:28:55;;;;;;;3.50;0.80;;;;;;;9.58;100.00;99140.09;5013779;28;20044;-83
2022/01/08 05:31:22;;;;;;;1.02;0.60;;;;;;;9.57;100.00;99130.38;5045828;28;20076;-83
2022/01/08 05:33:49;;;;;;;3.35;0.75;;;;;;;9.60;100.00;99137.16;5044687;28;20029;-82
2022/01/08 05:36:15;;;;;;;0.50;0.50;;;;;;;9.60;100.00;99135.31;5064113;28;20036;-83
2022/01/08 05:38:50;;;;;;;4.55;1.33;;;;;;;9.59;100.00;99143.59;5025701;28;20048;-84
2022/01/08 05:41:15;;;;;;;13.80;1.73;;;;;;;9.57;100.00;99167.94;5037128;28;20029;-81
2022/01/08 05:43:41;;;;;;;6.55;1.80;;;;;;;9.51;100.00;99186.72;5018620;28;20033;-83
2022/01/08 05:46:07;;;;;;;3.33;0.93;;;;;;;9.33;100.00;99174.75;5027911;28;20033;-85
2022/01/08 05:48:32;;;;;;;2.72;0.70;;;;;;;9.12;100.00;99177.63;5036504;28;20058;-83
2022/01/08 05:50:58;;;;;;;1.75;1.00;;;;;;;8.91;100.00;99178.66;5018691;28;20052;-86
2022/01/08 05:53:24;;;;;;;13.07;2.67;;;;;;;8.70;100.00;99176.94;5003043;28;20372;-81
2022/01/08 05:55:49;;;;;;;22.70;4.30;;;;;;;8.58;100.00;99180.22;5038994;28;20029;-86
2022/01/08 05:58:15;;;;;;;39.60;5.65;;;;;;;8.39;100.00;99170.28;5055105;28;20037;-83
2022/01/08 06:00:41;;;;;;;0.50;0.50;;;;;;;8.32;100.00;99172.88;5047681;28;20041;-85
2022/01/08 06:03:06;;;;;;;0.40;0.40;;;;;;;8.21;100.00;99159.25;5019282;28;20171;-82
2022/01/08 06:05:32;;;;;;;24.33;5.25;;;;;;;8.14;100.00;99151.19;5020179;28;20782;-83
2022/01/08 06:07:57;;;;;;;3.17;2.55;;;;;;;8.08;100.00;99141.28;5015240;28;20037;-84
2022/01/08 06:10:23;;;;;;;11.85;2.83;;;;;;;8.03;100.00;99143.72;5018059;28;20037;-87
2022/01/08 06:12:52;;;;;;;0.43;0.43;;;;;;;8.00;100.00;99136.91;5018927;28;20110;-84
2022/01/08 06:15:19;;;;;;;0.88;0.65;;;;;;;7.97;100.00;99147.22;5038271;28;20021;-83
2022/01/08 06:17:45;;;;;;;2.55;0.50;;;;;;;7.92;100.00;99140.59;5038473;28;20025;-84
2022/01/08 06:20:11;;;;;;;0.40;0.40;;;;;;;7.87;100.00;99126.97;5022321;28;20036;-85
2022/01/08 06:22:37;;;;;;;0.40;0.40;;;;;;;7.80;100.00;99112.72;5020106;28;20040;-84
2022/01/08 06:25:03;;;;;;;0.40;0.40;;;;;;;7.84;100.00;99139.94;5019222;28;20036;-81
2022/01/08 06:27:28;;;;;;;1.70;1.60;;;;;;;7.83;100.00;99152.50;5033375;28;20041;-79
2022/01/08 06:29:54;;;;;;;4.18;1.25;;;;;;;7.87;100.00;99172.47;5001696;28;20043;-83
2022/01/08 06:32:20;;;;;;;21.33;3.13;;;;;;;7.79;100.00;99174.47;5015287;28;21831;-85
2022/01/08 06:34:46;;;;;;;5.50;1.05;;;;;;;7.86;100.00;99181.53;5039147;28;20028;-84
2022/01/08 06:37:11;;;;;;;1.33;1.20;;;;;;;7.81;100.00;99177.78;5036497;28;20053;-85
2022/01/08 06:39:37;;;;;;;0.30;0.30;;;;;;;7.89;100.00;99217.78;5024325;28;20383;-83
2022/01/08 06:42:03;;;;;;;30.33;5.18;;;;;;;7.79;100.00;99226.13;5026381;28;20032;-82
2022/01/08 06:44:29;;;;;;;22.48;3.75;;;;;;;7.63;100.00;99211.22;5026355;28;20037;-83
2022/01/08 06:46:55;;;;;;;2.28;0.85;;;;;;;7.62;100.00;99200.69;5049243;28;20059;-84
2022/01/08 06:49:21;;;;;;;0.60;0.60;;;;;;;7.52;100.00;99208.25;5016254;28;20039;-83
2022/01/08 06:51:46;;;;;;;2.72;0.70;;;;;;;7.45;100.00;99209.00;5032264;28;20104;-84
2022/01/08 06:54:12;;;;;;;3.80;0.98;;;;;;;7.34;100.00;99198.84;5037738;28;20750;-83
2022/01/08 06:56:38;;;;;;;2.42;1.13;;;;;;;7.25;100.00;99205.31;5038294;28;20039;-84
2022/01/08 06:59:03;;;;;;;3.30;1.67;;;;;;;7.18;100.00;99204.47;5034982;28;20121;-83
2022/01/08 07:01:29;;;;;;;1.45;0.85;;;;;;;7.06;100.00;99204.13;5021504;28;20025;-83
2022/01/08 07:03:55;;;;;;;39.67;5.13;;;;;;;6.92;100.00;99192.50;5005057;28;20049;-85
2022/01/08 07:06:22;;;;;;;1.75;0.90;;;;;;;6.81;100.00;99187.66;5024752;28;20033;-85
2022/01/08 07:08:47;;;;;;;2.08;1.80;;;;;;;6.70;100.00;99174.81;5020320;28;20068;-82
2022/01/08 07:11:13;;;;;;;0.40;0.40;;;;;;;6.65;100.00;99163.88;5005530;28;20068;-85
2022/01/08 07:13:39;;;;;;;0.40;0.40;;;;;;;6.72;100.00;99164.75;5038902;28;20056;-85
2022/01/08 07:16:06;;;;;;;0.40;0.40;;;;;;;6.66;100.00;99166.34;5022051;28;20044;-82
2022/01/08 07:18:32;;;;;;;0.40;0.40;;;;;;;6.64;100.00;99172.88;5038268;28;20036;-86
2022/01/08 07:20:57;;;;;;;0.40;0.40;;;;;;;6.52;100.00;99161.88;5039762;28;20037;-86
2022/01/08 07:23:23;;;;;;;0.40;0.40;;;;;;;6.38;100.00;99163.59;5027047;28;20099;-84
2022/01/08 07:25:49;;;;;;;0.40;0.40;;;;;;;6.28;100.00;99163.03;5009352;28;20045;-85
2022/01/08 07:28:14;;;;;;;0.50;0.50;;;;;;;6.18;100.00;99154.50;5006066;28;20052;-83
2022/01/08 07:30:40;;;;;;;0.40;0.40;;;;;;;6.09;100.00;99156.47;5039513;28;20051;-86
2022/01/08 07:33:06;;;;;;;0.40;0.40;;;;;;;5.93;100.00;99130.78;5037004;28;20411;-85
2022/01/08 07:35:31;;;;;;;0.50;0.50;;;;;;;5.94;100.00;99151.13;5040305;28;20033;-84
2022/01/08 07:37:57;;;;;;;0.40;0.40;;;;;;;5.94;100.00;99153.78;5023365;28;20033;-88
2022/01/08 07:40:25;;;;;;;0.50;0.50;;;;;;;5.93;100.00;99141.44;5037426;28;20041;-84
2022/01/08 07:42:51;;;;;;;0.40;0.40;;;;;;;5.86;100.00;99120.00;5039310;28;20059;-84
2022/01/08 07:45:18;;;;;;;0.50;0.50;;;;;;;5.90;100.00;99131.13;5043595;28;20040;-85
2022/01/08 07:47:44;;;;;;;0.50;0.50;;;;;;;5.98;100.00;99140.91;5042093;28;20047;-85
2022/01/08 07:50:10;;;;;;;0.50;0.50;;;;;;;6.07;100.00;99137.13;5048553;28;20032;-86
2022/01/08 07:52:36;;;;;;;0.50;0.50;;;;;;;6.04;100.00;99119.66;5026875;28;20036;-86
2022/01/08 07:55:03;;;;;;;0.40;0.40;;;;;;;6.11;100.00;99127.72;5037840;28;20025;-85
2022/01/08 07:57:29;;;;;;;0.45;0.45;;;;;;;6.25;100.00;99169.59;5035960;28;20151;-84
2022/01/08 07:59:54;;;;;;;34.78;6.55;;;;;;;6.25;100.00;99228.31;5039407;28;20111;-82
2022/01/08 08:02:20;;;;;;;10.18;2.22;;;;;;;5.92;100.00;99196.63;5028686;28;20068;-83
2022/01/08 08:04:46;;;;;;;3.10;1.38;;;;;;;5.64;100.00;99179.63;5039820;28;20041;-86
2022/01/08 08:07:11;;;;;;;8.00;1.70;;;;;;;5.20;100.00;99151.88;5007669;28;20049;-86
2022/01/08 08:09:37;;;;;;;1.50;1.10;;;;;;;5.20;100.00;99175.84;5042111;28;20078;-83
2022/01/08 08:12:04;;;;;;;2.88;0.80;;;;;;;5.01;100.00;99174.50;5039798;28;20111;-85
2022/01/08 08:14:31;;;;;;;0.45;0.45;;;;;;;4.87;100.00;99171.78;5037584;28;20078;-82
2022/01/08 08:16:56;;;;;;;2.70;0.93;;;;;;;4.77;100.00;99170.19;5036906;28;20455;-83
2022/01/08 08:19:22;;;;;;;0.50;0.50;;;;;;;4.70;100.00;99176.41;5034921;28;20043;-84
2022/01/08 08:21:47;;;;;;;0.50;0.50;;;;;;;4.59;100.00;99172.31;5037484;28;20033;-85
2022/01/08 08:24:14;;;;;;;0.50;0.50;;;;;;;4.58;100.00;99174.16;5020307;28;20060;-84
2022/01/08 08:26:40;;;;;;;0.50;0.50;;;;;;;4.49;100.00;99169.06;5030251;28;20043;-85
2022/01/08 08:29:06;;;;;;;0.50;0.50;;;;;;;4.54;100.00;99193.31;5036464;28;20030;-84
2022/01/08 08:31:31;;;;;;;0.45;0.45;;;;;;;4.56;100.00;99165.50;5038677;28;20060;-80
2022/01/08 08:33:57;;;;;;;0.40;0.40;;;;;;;4.66;100.00;99186.59;5040378;28;20032;-83
2022/01/08 08:36:23;;;;;;;0.50;0.50;;;;;;;4.66;100.00;99180.41;5012849;28;20372;-81
2022/01/08 08:38:49;;;;;;;0.50;0.50;;;;;;;4.58;100.00;99176.81;5020704;28;20055;-84
2022/01/08 08:41:15;;;;;;;0.50;0.50;;;;;;;4.47;100.00;99171.06;5039134;28;20098;-86
2022/01/08 08:43:40;;;;;;;0.50;0.50;;;;;;;4.34;100.00;99177.78;5038774;28;20398;-83
2022/01/08 08:46:06;;;;;;;0.45;0.45;;;;;;;4.42;100.00;99179.59;5035142;28;20052;-84
2022/01/08 08:48:34;;;;;;;0.60;0.60;;;;;;;4.42;100.00;99184.91;5059096;28;20043;-83
2022/01/08 08:50:59;;;;;;;0.47;0.47;;;;;;;4.40;100.00;99176.25;5025684;28;20033;-85
2022/01/08 08:53:25;;;;;;;0.47;0.47;;;;;;;4.45;100.00;99170.41;5027361;28;20052;-84
2022/01/08 08:55:51;;;;;;;0.50;0.50;;;;;;;4.37;100.00;99139.34;5039319;28;20032;-81
2022/01/08 08:58:17;;;;;;;0.50;0.50;;;;;;;4.67;100.00;99160.78;5035864;28;20124;-83
2022/01/08 09:00:42;;;;;;;0.40;0.40;;;;;;;4.75;100.00;99171.38;5020996;28;20033;-82
2022/01/08 09:03:08;;;;;;;0.90;0.68;;;;;;;4.87;100.00;99177.09;5053883;28;20485;-82
2022/01/08 09:05:37;;;;;;;2.10;1.52;;;;;;;4.96;100.00;99179.53;5024491;28;20055;-80
2022/01/08 09:08:04;;;;;;;3.50;0.95;;;;;;;4.95;100.00;99139.75;5035174;28;20040;-83
2022/01/08 09:10:29;;;;;;;12.63;1.65;;;;;;;5.00;100.00;99151.56;5039830;28;20032;-84
2022/01/08 09:12:55;;;;;;;0.50;0.50;;;;;;;4.93;100.00;99150.59;5062648;28;20091;-83
2022/01/08 09:15:24;;;;;;;0.50;0.50;;;;;;;4.87;100.00;99147.81;5018053;28;20061;-82
2022/01/08 09:17:51;;;;;;;0.50;0.50;;;;;;;4.78;100.00;99141.72;5026626;28;20097;-84
2022/01/08 09:20:17;;;;;;;0.60;0.60;;;;;;;4.76;100.00;99141.94;5048503;28;20029;-82
2022/01/08 09:22:43;;;;;;;0.70;0.70;;;;;;;4.75;100.00;99156.22;5037457;28;20372;-84
2022/01/08 09:25:09;;;;;;;0.45;0.45;;;;;;;4.68;100.00;99149.13;5036702;28;20472;-86
2022/01/08 09:27:35;;;;;;;0.40;0.40;;;;;;;4.50;100.00;99142.28;5038284;28;20059;-86
2022/01/08 09:30:01;;;;;;;0.50;0.50;;;;;;;4.39;100.00;99145.31;5023534;28;20577;-84
2022/01/08 09:32:27;;;;;;;0.40;0.40;;;;;;;4.29;100.00;99142.88;5037871;28;20036;-84
2022/01/08 09:34:52;;;;;;;0.50;0.50;;;;;;;4.24;100.00;99136.44;5035860;28;20028;-80
2022/01/08 09:37:18;;;;;;;0.50;0.50;;;;;;;4.26;100.00;99148.56;5039931;28;20063;-83
2022/01/08 09:39:44;;;;;;;0.50;0.50;;;;;;;4.20;100.00;99154.56;5039821;28;20108;-85
2022/01/08 09:42:10;;;;;;;1.67;0.65;;;;;;;4.14;100.00;99152.59;5035288;28;20132;-84
2022/01/08 09:44:43;;;;;;;0.45;0.45;;;;;;;4.22;100.00;99146.44;5036681;28;20164;-83
2022/01/08 09:47:08;;;;;;;0.50;0.50;;;;;;;4.15;100.00;99136.50;5034437;28;20033;-85
2022/01/08 09:49:34;;;;;;;0.40;0.40;;;;;;;4.22;100.00;99154.41;5036605;28;20048;-82
2022/01/08 09:52:03;;;;;;;0.50;0.50;;;;;;;4.31;100.00;99145.34;5038926;28;20064;-83
2022/01/08 09:54:31;;;;;;;0.50;0.50;;;;;;;4.51;100.00;99151.06;5022865;28;20049;-83
2022/01/08 09:56:57;;;;;;;0.50;0.50;;;;;;;4.88;100.00;99141.50;5022149;28;20047;-87
2022/01/08 09:59:24;;;;;;;4.22;1.15;;;;;;;5.31;100.00;99147.09;5036996;28;20047;-84
2022/01/08 10:01:55;;;;;;;0.50;0.50;;;;;;;5.69;100.00;99146.06;5039163;28;20115;-87
2022/01/08 10:04:29;;;;;;;1.83;1.73;;;;;;;6.14;100.00;99144.22;5038543;28;20025;-81
2022/01/08 10:07:43;;;;;;;37.72;4.97;;;;;;;6.43;100.00;99174.53;5021208;28;20029;-84
2022/01/08 10:10:20;;;;;;;23.35;3.90;;;;;;;6.49;100.00;99178.28;5009933;28;20040;-82
2022/01/08 10:12:54;;;;;;;31.73;5.07;;;;;;;6.27;100.00;99188.06;5022585;28;20028;-83
2022/01/08 10:18:41;;;;;;;2.17;1.00;;;;;;;5.19;100.00;99214.16;5023264;28;20037;-88
2022/01/08 10:21:23;;;;;;;13.65;2.35;;;;;;;4.65;100.00;99166.28;5017292;28;20479;-84
2022/01/08 10:24:08;;;;;;;0.55;0.50;;;;;;;4.31;100.00;99159.53;5035860;28;20044;-84
2022/01/08 10:26:40;;;;;;;1.75;1.23;;;;;;;4.22;100.00;99165.88;5045016;28;20505;-81
2022/01/08 10:29:10;;;;;;;3.50;1.08;;;;;;;4.30;100.00;99175.66;5044769;28;20086;-84
2022/01/08 10:31:44;;;;;;;2.85;1.48;;;;;;;4.30;100.00;99168.47;5048062;28;20041;-83
2022/01/08 10:34:12;;;;;;;0.60;0.60;;;;;;;4.33;100.00;99160.16;5012449;28;20100;-84
2022/01/08 10:36:43;;;;;;;0.60;0.60;;;;;;;5.59;100.00;99163.34;5012399;28;20064;-83
2022/01/08 10:39:18;;;;;;;0.70;0.70;;;;;;;6.99;100.00;99150.63;5038367;28;20063;-82
2022/01/08 10:41:45;;;;;;;1.05;0.70;;;;;;;7.69;98.60;99143.53;5045258;28;20513;-84
2022/01/08 10:44:31;;;;;;;0.60;0.60;;;;;;;8.42;94.15;99161.03;5015750;28;20143;-87
2022/01/08 10:47:02;;;;;;;0.70;0.70;;;;;;;8.20;94.25;99171.78;5041130;28;20080;-85
2022/01/08 10:49:45;;;;;;;0.45;0.45;;;;;;;7.76;95.10;99170.34;5031666;28;20116;-84
2022/01/08 10:52:14;;;;;;;0.93;0.60;;;;;;;7.54;96.13;99172.25;5036988;28;20098;-83
2022/01/08 10:54:42;;;;;;;0.50;0.50;;;;;;;6.95;98.67;99176.06;5013934;28;20483;-87
2022/01/08 10:57:09;;;;;;;0.50;0.50;;;;;;;6.21;100.00;99154.13;5014463;28;20051;-82
2022/01/08 10:59:36;;;;;;;0.50;0.50;;;;;;;5.91;100.00;99159.47;5047468;28;20041;-81
2022/01/08 11:02:03;;;;;;;0.50;0.50;;;;;;;5.64;100.00;99147.63;5049331;28;20029;-83
2022/01/08 11:04:34;;;;;;;0.60;0.60;;;;;;;6.87;100.00;99162.84;5032322;28;20040;-81
2022/01/08 11:07:10;;;;;;;0.60;0.60;;;;;;;7.96;100.00;99169.63;5066172;28;20482;-83
2022/01/08 11:09:38;;;;;;;1.95;1.58;;;;;;;9.25;95.03;99166.91;5028122;28;20055;-82
2022/01/08 11:12:05;;;;;;;0.80;0.77;;;;;;;9.18;93.32;99164.25;5047937;28;20474;-83
2022/01/08 11:17:16;;;;;;;;;;;;;;;7.26;100.00;99169.56;5048885;28;20475;-83
2022/01/08 11:19:43;;;;;;;5.25;2.35;;;;;;;8.62;96.19;99167.25;5049328;28;19970;-81
2022/01/08 11:22:11;;;;;;;1.05;0.60;;;;;;;8.71;94.11;99168.72;5016231;28;20072;-85
2022/01/08 11:24:44;;;;;;;0.80;0.80;;;;;;;9.50;90.94;99150.19;5047099;28;20492;-83
2022/01/08 11:27:11;;;;;;;0.60;0.60;;;;;;;9.66;88.65;99136.34;5015810;28;20032;-82
2022/01/08 11:29:38;;;;;;;3.50;0.80;;;;;;;7.95;94.53;99165.31;5048949;28;20029;-82
2022/01/08 11:32:05;;;;;;;1.20;0.68;;;;;;;8.03;95.57;99165.13;5049112;28;20070;-82
2022/01/08 11:34:31;;;;;;;1.02;1.02;;;;;;;8.46;95.82;99155.03;5045077;28;20037;-81
2022/01/08 11:36:58;;;;;;;0.50;0.50;;;;;;;8.59;96.17;99155.06;5024316;28;20368;-80
2022/01/08 11:39:27;;;;;;;0.50;0.50;;;;;;;8.73;96.29;99155.94;5039683;28;20044;-81
2022/01/08 11:42:04;;;;;;;0.60;0.60;;;;;;;9.69;92.12;99147.50;5050420;28;20089;-80
2022/01/08 11:45:01;;;;;;;1.23;0.98;;;;;;;9.75;90.28;99118.97;4998063;28;20045;-86
2022/01/08 11:47:29;;;;;;;1.75;1.35;;;;;;;9.97;87.99;99122.22;5053655;28;20025;-79
2022/01/08 11:49:55;;;;;;;1.08;0.80;;;;;;;9.35;90.11;99135.16;5052411;28;20597;-85
2022/01/08 11:52:22;;;;;;;6.30;1.27;;;;;;;9.40;91.30;99145.25;5048532;28;20470;-81
2022/01/08 11:54:55;;;;;;;2.53;1.08;;;;;;;8.55;95.32;99139.63;5042235;28;20111;-79
2022/01/08 11:57:26;;;;;;;0.50;0.50;;;;;;;7.52;100.00;99136.03;5037629;28;20101;-81